createdAt,value
2018-01-30T00:00:11.757Z,91.70
2018-01-30T00:02:40.007Z,90.47
2018-01-30T00:05:09.025Z,90.70
2018-01-30T00:07:37.268Z,88.61
2018-01-30T00:10:06.282Z,87.08
2018-01-30T00:12:34.544Z,88.18
2018-01-30T00:15:03.551Z,87.86
2018-01-30T00:17:31.806Z,88.78
2018-01-30T00:20:00.817Z,88.33
2018-01-30T00:22:29.068Z,88.63
2018-01-30T00:24:58.083Z,88.54
2018-01-30T00:27:26.329Z,88.87
2018-01-30T00:29:54.577Z,89.24
2018-01-30T00:32:22.831Z,88.68
2018-01-30T00:34:51.100Z,88.79
2018-01-30T00:37:19.383Z,88.11
2018-01-30T00:39:47.620Z,88.45
2018-01-30T00:42:16.639Z,88.51
2018-01-30T00:44:44.895Z,88.95
2018-01-30T00:47:13.932Z,88.48
2018-01-30T00:49:42.206Z,86.94
2018-01-30T00:52:10.513Z,87.49
2018-01-30T00:54:38.809Z,87.01
2018-01-30T00:57:07.114Z,86.77
2018-01-30T00:59:35.393Z,86.29
2018-01-30T01:02:03.671Z,86.84
2018-01-30T01:04:31.932Z,86.29
2018-01-30T01:07:00.199Z,86.66
2018-01-30T01:09:29.358Z,87.38
2018-01-30T01:11:57.685Z,86.84
2018-01-30T01:14:26.107Z,87.42
2018-01-30T01:16:54.439Z,86.55
2018-01-30T01:19:22.810Z,87.37
2018-01-30T01:21:51.900Z,87.22
2018-01-30T01:24:21.001Z,86.61
2018-01-30T01:26:49.312Z,86.44
2018-01-30T01:29:17.624Z,86.29
2018-01-30T01:31:45.942Z,86.83
2018-01-30T01:34:14.258Z,86.42
2018-01-30T01:36:42.558Z,86.57
2018-01-30T01:39:10.847Z,86.30
2018-01-30T01:41:39.157Z,86.39
2018-01-30T01:44:07.433Z,86.53
2018-01-30T01:46:35.713Z,86.43
2018-01-30T01:49:04.009Z,85.97
2018-01-30T01:51:32.312Z,85.96
2018-01-30T01:54:00.651Z,86.44
2018-01-30T01:56:28.962Z,86.46
2018-01-30T01:58:57.274Z,87.06
2018-01-30T02:01:25.598Z,86.23
2018-01-30T02:03:53.921Z,85.73
2018-01-30T02:06:23.004Z,86.16
2018-01-30T02:08:52.086Z,85.82
2018-01-30T02:11:20.430Z,85.77
2018-01-30T02:13:48.727Z,86.23
2018-01-30T02:16:17.042Z,85.70
2018-01-30T02:18:45.355Z,85.38
2018-01-30T02:21:13.650Z,84.54
2018-01-30T02:23:42.727Z,84.82
2018-01-30T02:26:11.043Z,84.69
2018-01-30T02:28:39.355Z,85.45
2018-01-30T02:31:07.656Z,85.26
2018-01-30T02:33:36.003Z,86.06
2018-01-30T02:36:04.309Z,84.73
2018-01-30T02:38:32.645Z,84.37
2018-01-30T02:41:01.710Z,85.98
2018-01-30T02:43:30.025Z,84.89
2018-01-30T02:45:59.121Z,84.83
2018-01-30T02:48:28.199Z,84.99
2018-01-30T02:50:56.507Z,85.51
2018-01-30T02:53:24.830Z,85.27
2018-01-30T02:55:53.173Z,85.59
2018-01-30T02:58:22.210Z,85.45
2018-01-30T03:00:50.509Z,85.65
2018-01-30T03:03:19.617Z,85.20
2018-01-30T03:05:47.915Z,85.10
2018-01-30T03:08:16.228Z,85.08
2018-01-30T03:10:44.572Z,85.02
2018-01-30T03:13:12.895Z,85.42
2018-01-30T03:15:41.216Z,85.38
2018-01-30T03:18:09.531Z,85.02
2018-01-30T03:20:37.879Z,83.70
2018-01-30T03:23:06.192Z,84.23
2018-01-30T03:25:34.501Z,84.10
2018-01-30T03:28:03.561Z,85.00
2018-01-30T03:30:31.890Z,85.29
2018-01-30T03:33:00.194Z,84.95
2018-01-30T03:35:28.526Z,85.16
2018-01-30T03:37:57.620Z,85.20
2018-01-30T03:40:25.915Z,85.35
2018-01-30T03:42:54.193Z,84.69
2018-01-30T03:45:22.489Z,84.38
2018-01-30T03:47:50.846Z,84.77
2018-01-30T03:50:19.142Z,84.49
2018-01-30T03:52:47.459Z,84.45
2018-01-30T03:55:15.750Z,84.66
2018-01-30T03:57:44.853Z,85.01
2018-01-30T04:00:13.944Z,83.74
2018-01-30T04:02:42.274Z,84.81
2018-01-30T04:05:10.577Z,85.43
2018-01-30T04:07:38.978Z,84.83
2018-01-30T04:10:08.108Z,85.20
2018-01-30T04:12:36.406Z,85.48
2018-01-30T04:15:04.779Z,85.02
2018-01-30T04:17:33.110Z,84.54
2018-01-30T04:20:01.422Z,84.58
2018-01-30T04:22:29.726Z,86.16
2018-01-30T04:24:58.051Z,84.88
2018-01-30T04:27:26.360Z,85.01
2018-01-30T04:29:54.683Z,84.21
2018-01-30T04:32:23.001Z,84.78
2018-01-30T04:34:51.318Z,84.70
2018-01-30T04:37:19.662Z,85.14
2018-01-30T04:39:48.735Z,84.85
2018-01-30T04:42:17.049Z,85.35
2018-01-30T04:44:45.352Z,85.53
2018-01-30T04:47:14.413Z,84.79
2018-01-30T04:49:42.716Z,86.05
2018-01-30T04:52:11.003Z,84.51
2018-01-30T04:54:39.338Z,84.09
2018-01-30T04:57:08.437Z,83.97
2018-01-30T04:59:36.782Z,82.79
2018-01-30T05:02:05.131Z,82.93
2018-01-30T05:04:34.225Z,82.28
2018-01-30T05:07:03.381Z,81.36
2018-01-30T05:09:31.705Z,81.51
2018-01-30T05:12:00.799Z,82.72
2018-01-30T05:14:29.895Z,82.86
2018-01-30T05:16:58.995Z,82.56
2018-01-30T05:19:27.327Z,83.37
2018-01-30T05:21:55.646Z,82.31
2018-01-30T05:24:23.935Z,81.79
2018-01-30T05:26:52.252Z,80.71
2018-01-30T05:29:20.584Z,82.95
2018-01-30T05:31:49.700Z,81.88
2018-01-30T05:34:18.009Z,83.98
2018-01-30T05:36:46.332Z,83.48
2018-01-30T05:39:14.638Z,83.87
2018-01-30T05:41:42.922Z,84.66
2018-01-30T05:44:12.001Z,83.92
2018-01-30T05:46:40.292Z,84.87
2018-01-30T05:49:08.614Z,84.34
2018-01-30T05:51:37.689Z,84.21
2018-01-30T05:54:06.008Z,84.74
2018-01-30T05:56:34.310Z,84.59
2018-01-30T05:59:02.651Z,84.33
2018-01-30T06:01:31.753Z,85.45
2018-01-30T06:04:00.824Z,85.13
2018-01-30T06:06:29.909Z,84.77
2018-01-30T06:08:58.239Z,84.75
2018-01-30T06:11:26.601Z,84.79
2018-01-30T06:13:54.907Z,85.45
2018-01-30T06:16:23.219Z,85.00
2018-01-30T06:18:51.559Z,85.10
2018-01-30T06:21:19.853Z,85.36
2018-01-30T06:23:48.178Z,85.66
2018-01-30T06:26:16.491Z,86.33
2018-01-30T06:28:44.776Z,86.57
2018-01-30T06:31:13.131Z,86.33
2018-01-30T06:33:41.472Z,86.15
2018-01-30T06:36:10.556Z,86.02
2018-01-30T06:38:38.887Z,86.37
2018-01-30T06:41:07.164Z,85.87
2018-01-30T06:43:35.482Z,86.22
2018-01-30T06:46:03.786Z,86.45
2018-01-30T06:48:32.065Z,85.54
2018-01-30T06:51:00.351Z,85.42
2018-01-30T06:53:28.634Z,85.02
2018-01-30T06:55:56.878Z,86.73
2018-01-30T06:58:26.026Z,84.77
2018-01-30T07:00:54.398Z,84.91
2018-01-30T07:03:22.745Z,84.98
2018-01-30T07:05:51.083Z,85.05
2018-01-30T07:08:19.408Z,84.17
2018-01-30T07:10:47.751Z,84.20
2018-01-30T07:13:16.060Z,83.25
2018-01-30T07:15:44.511Z,84.07
2018-01-30T07:18:12.813Z,84.41
2018-01-30T07:20:41.171Z,84.02
2018-01-30T07:23:10.318Z,83.91
2018-01-30T07:25:38.813Z,83.64
2018-01-30T07:28:07.130Z,84.60
2018-01-30T07:30:35.461Z,83.71
2018-01-30T07:33:03.904Z,83.89
2018-01-30T07:35:32.210Z,83.87
2018-01-30T07:38:00.530Z,83.64
2018-01-30T07:40:28.825Z,83.64
2018-01-30T07:42:57.882Z,84.59
2018-01-30T07:45:26.182Z,84.75
2018-01-30T07:47:55.269Z,85.23
2018-01-30T07:50:23.574Z,84.64
2018-01-30T07:52:51.986Z,85.47
2018-01-30T07:55:20.316Z,85.62
2018-01-30T07:57:49.409Z,84.08
2018-01-30T08:00:18.492Z,83.82
2018-01-30T08:02:46.850Z,82.70
2018-01-30T08:05:15.193Z,83.27
2018-01-30T08:07:43.524Z,85.07
2018-01-30T08:10:11.838Z,85.39
2018-01-30T08:12:40.206Z,85.19
2018-01-30T08:15:09.282Z,85.01
2018-01-30T08:17:38.358Z,85.40
2018-01-30T08:20:06.711Z,84.81
2018-01-30T08:22:35.036Z,84.37
2018-01-30T08:25:03.382Z,83.92
2018-01-30T08:27:31.722Z,82.67
2018-01-30T08:30:00.069Z,82.44
2018-01-30T08:32:29.163Z,82.02
2018-01-30T08:34:58.354Z,79.77
2018-01-30T08:37:26.688Z,79.28
2018-01-30T08:39:55.797Z,78.23
2018-01-30T08:42:24.118Z,78.42
2018-01-30T08:44:52.432Z,77.82
2018-01-30T08:47:20.761Z,77.79
2018-01-30T08:49:49.089Z,77.68
2018-01-30T08:52:17.445Z,77.90
2018-01-30T08:54:45.894Z,78.21
2018-01-30T08:57:15.009Z,77.87
2018-01-30T08:59:43.327Z,77.04
2018-01-30T09:02:11.716Z,76.78
2018-01-30T09:04:40.038Z,76.01
2018-01-30T09:07:09.129Z,75.79
2018-01-30T09:09:38.205Z,75.84
2018-01-30T09:12:06.557Z,75.35
2018-01-30T09:14:34.929Z,75.36
2018-01-30T09:17:03.293Z,74.99
2018-01-30T09:19:31.658Z,74.14
2018-01-30T09:21:59.978Z,73.75
2018-01-30T09:24:28.284Z,72.64
2018-01-30T09:26:56.624Z,71.91
2018-01-30T09:29:24.964Z,70.91
2018-01-30T09:31:53.295Z,70.60
2018-01-30T09:34:21.633Z,71.79
2018-01-30T09:36:49.967Z,72.42
2018-01-30T09:39:18.344Z,71.11
2018-01-30T09:41:46.671Z,70.99
2018-01-30T09:44:15.057Z,71.68
2018-01-30T09:46:43.396Z,71.06
2018-01-30T09:49:11.793Z,71.02
2018-01-30T09:51:40.105Z,70.50
2018-01-30T09:54:08.460Z,70.23
2018-01-30T09:56:36.794Z,70.28
2018-01-30T09:59:05.970Z,69.46
2018-01-30T10:01:34.321Z,68.45
2018-01-30T10:04:02.665Z,69.24
2018-01-30T10:06:31.005Z,69.13
2018-01-30T10:08:59.327Z,68.43
2018-01-30T10:11:27.691Z,68.94
2018-01-30T10:13:56.795Z,68.15
2018-01-30T10:16:25.121Z,67.99
2018-01-30T10:18:53.495Z,67.59
2018-01-30T10:21:21.812Z,67.72
2018-01-30T10:23:50.173Z,68.27
2018-01-30T10:26:18.516Z,68.66
2018-01-30T10:28:46.819Z,69.48
2018-01-30T10:31:15.174Z,68.50
2018-01-30T10:33:44.257Z,67.26
2018-01-30T10:36:12.608Z,68.40
2018-01-30T10:38:40.940Z,66.10
2018-01-30T10:41:09.288Z,67.54
2018-01-30T10:43:37.634Z,67.23
2018-01-30T10:46:05.960Z,66.89
2018-01-30T10:48:34.349Z,65.94
2018-01-30T10:51:02.720Z,65.46
2018-01-30T10:53:31.047Z,63.83
2018-01-30T10:55:59.413Z,64.74
2018-01-30T10:58:27.706Z,63.85
2018-01-30T11:00:56.132Z,62.38
2018-01-30T11:03:24.430Z,63.48
2018-01-30T11:05:53.589Z,63.12
2018-01-30T11:08:21.915Z,61.51
2018-01-30T11:10:50.271Z,56.66
2018-01-30T11:13:18.611Z,56.77
2018-01-30T11:15:47.016Z,55.25
2018-01-30T11:18:15.326Z,55.14
2018-01-30T11:20:44.442Z,55.99
2018-01-30T11:23:12.827Z,52.69
2018-01-30T11:25:41.249Z,56.67
2018-01-30T11:28:09.708Z,54.58
2018-01-30T11:30:38.058Z,52.43
2018-01-30T11:33:06.479Z,55.05
2018-01-30T11:35:34.799Z,51.49
2018-01-30T11:38:03.881Z,52.99
2018-01-30T11:40:32.169Z,55.76
2018-01-30T11:43:00.531Z,50.79
2018-01-30T11:45:29.652Z,47.40
2018-01-30T11:47:57.988Z,49.33
2018-01-30T11:50:27.083Z,47.82
2018-01-30T11:52:55.436Z,49.42
2018-01-30T11:55:23.768Z,47.11
2018-01-30T11:57:52.110Z,47.51
2018-01-30T12:00:20.499Z,52.68
2018-01-30T12:02:48.845Z,52.43
2018-01-30T12:05:17.167Z,54.92
2018-01-30T12:07:45.530Z,48.21
2018-01-30T12:10:13.865Z,46.86
2018-01-30T12:12:42.175Z,49.72
2018-01-30T12:15:11.270Z,48.22
2018-01-30T12:17:41.140Z,48.05
2018-01-30T12:20:09.475Z,52.80
2018-01-30T12:22:37.805Z,58.53
2018-01-30T12:25:06.142Z,59.23
2018-01-30T12:27:34.487Z,55.87
2018-01-30T12:30:02.826Z,50.55
2018-01-30T12:32:31.137Z,49.36
2018-01-30T12:34:59.478Z,46.26
2018-01-30T12:37:27.798Z,46.72
2018-01-30T12:39:56.131Z,52.18
2018-01-30T12:42:24.430Z,52.20
2018-01-30T12:44:52.742Z,49.38
2018-01-30T12:47:21.160Z,49.05
2018-01-30T12:49:49.485Z,47.60
2018-01-30T12:52:17.802Z,51.01
2018-01-30T12:54:46.215Z,46.78
2018-01-30T12:57:14.752Z,44.72
2018-01-30T12:59:43.095Z,46.71
2018-01-30T13:02:11.470Z,50.97
2018-01-30T13:04:39.806Z,47.47
2018-01-30T13:07:08.147Z,43.60
2018-01-30T13:09:36.568Z,45.63
2018-01-30T13:12:05.068Z,43.98
2018-01-30T13:14:33.413Z,48.09
2018-01-30T13:17:01.796Z,47.34
2018-01-30T13:19:30.146Z,45.25
2018-01-30T13:21:58.533Z,46.22
2018-01-30T13:24:26.922Z,42.60
2018-01-30T13:26:55.281Z,43.92
2018-01-30T13:29:23.636Z,40.00
2018-01-30T13:31:53.192Z,42.24
2018-01-30T13:34:21.528Z,45.94
2018-01-30T13:36:49.920Z,44.12
2018-01-30T13:39:18.263Z,50.52
2018-01-30T13:41:46.579Z,45.15
2018-01-30T13:44:14.923Z,42.96
2018-01-30T13:46:43.245Z,47.09
2018-01-30T13:49:12.395Z,44.61
2018-01-30T13:51:40.734Z,42.08
2018-01-30T13:54:09.093Z,46.53
2018-01-30T13:56:38.202Z,43.52
2018-01-30T13:59:06.566Z,47.52
2018-01-30T14:01:35.699Z,43.30
2018-01-30T14:04:04.055Z,47.95
2018-01-30T14:06:32.386Z,45.72
2018-01-30T14:09:00.706Z,47.17
2018-01-30T14:11:29.026Z,53.37
2018-01-30T14:13:57.362Z,47.07
2018-01-30T14:16:25.687Z,51.48
2018-01-30T14:18:54.774Z,47.24
2018-01-30T14:21:23.124Z,43.15
2018-01-30T14:23:51.471Z,40.35
2018-01-30T14:26:20.604Z,41.17
2018-01-30T14:28:48.921Z,49.60
2018-01-30T14:31:17.288Z,51.83
2018-01-30T14:33:45.595Z,50.34
2018-01-30T14:36:13.903Z,42.83
2018-01-30T14:38:42.236Z,41.61
2018-01-30T14:41:10.559Z,42.65
2018-01-30T14:43:38.881Z,45.32
2018-01-30T14:46:07.240Z,47.43
2018-01-30T14:48:35.667Z,44.68
2018-01-30T14:51:04.773Z,44.69
2018-01-30T14:53:34.842Z,46.11
2018-01-30T14:56:03.166Z,40.92
2018-01-30T14:58:32.271Z,43.98
2018-01-30T15:01:01.365Z,43.29
2018-01-30T15:03:29.741Z,46.06
2018-01-30T15:05:58.826Z,44.63
2018-01-30T15:08:28.090Z,45.89
2018-01-30T15:10:56.389Z,48.47
2018-01-30T15:13:24.701Z,50.63
2018-01-30T15:15:53.012Z,52.16
2018-01-30T15:18:21.356Z,54.20
2018-01-30T15:20:49.765Z,55.91
2018-01-30T15:23:18.075Z,55.22
2018-01-30T15:25:47.190Z,55.93
2018-01-30T15:28:16.271Z,55.66
2018-01-30T15:30:45.392Z,56.01
2018-01-30T15:33:13.728Z,56.33
2018-01-30T15:35:42.037Z,57.85
2018-01-30T15:38:10.365Z,58.45
2018-01-30T15:40:38.680Z,58.53
2018-01-30T15:43:07.815Z,59.00
2018-01-30T15:45:36.175Z,59.32
2018-01-30T15:48:04.535Z,60.14
2018-01-30T15:50:33.633Z,60.83
2018-01-30T15:53:02.737Z,61.19
2018-01-30T15:55:31.066Z,61.74
2018-01-30T15:57:59.407Z,61.72
2018-01-30T16:00:27.734Z,61.83
2018-01-30T16:02:56.043Z,62.40
2018-01-30T16:05:24.379Z,62.83
2018-01-30T16:07:52.701Z,63.28
2018-01-30T16:10:21.037Z,63.29
2018-01-30T16:12:49.380Z,63.69
2018-01-30T16:15:18.513Z,63.68
2018-01-30T16:17:46.838Z,63.86
2018-01-30T16:20:15.153Z,64.33
2018-01-30T16:22:43.469Z,64.53
2018-01-30T16:25:12.572Z,65.20
2018-01-30T16:27:41.650Z,65.30
2018-01-30T16:30:10.766Z,65.68
2018-01-30T16:32:39.110Z,65.72
2018-01-30T16:35:07.441Z,66.00
2018-01-30T16:37:35.791Z,66.21
2018-01-30T16:40:04.898Z,66.22
2018-01-30T16:42:33.194Z,66.48
2018-01-30T16:45:01.504Z,66.47
2018-01-30T16:47:29.860Z,66.76
2018-01-30T16:49:58.223Z,66.80
2018-01-30T16:52:26.610Z,66.79
2018-01-30T16:54:55.008Z,67.50
2018-01-30T16:57:23.329Z,67.29
2018-01-30T16:59:52.415Z,67.27
2018-01-30T17:02:21.520Z,66.55
2018-01-30T17:04:50.586Z,67.50
2018-01-30T17:07:18.911Z,66.94
2018-01-30T17:09:47.278Z,67.19
2018-01-30T17:12:15.642Z,67.28
2018-01-30T17:14:44.742Z,68.76
2018-01-30T17:17:13.837Z,69.38
2018-01-30T17:19:42.909Z,69.38
2018-01-30T17:22:11.251Z,69.93
2018-01-30T17:24:39.630Z,70.02
2018-01-30T17:27:07.962Z,70.61
2018-01-30T17:29:37.070Z,71.04
2018-01-30T17:32:05.403Z,71.16
2018-01-30T17:34:33.745Z,71.66
2018-01-30T17:37:02.089Z,72.14
2018-01-30T17:39:30.397Z,72.50
2018-01-30T17:41:58.691Z,73.04
2018-01-30T17:44:27.005Z,72.90
2018-01-30T17:46:56.155Z,72.97
2018-01-30T17:49:24.488Z,73.54
2018-01-30T17:51:53.596Z,74.03
2018-01-30T17:54:21.920Z,73.77
2018-01-30T17:56:50.248Z,74.76
2018-01-30T17:59:19.393Z,75.09
2018-01-30T18:01:47.730Z,74.68
2018-01-30T18:04:16.147Z,74.98
2018-01-30T18:06:44.512Z,75.56
2018-01-30T18:09:12.905Z,75.55
2018-01-30T18:11:41.237Z,75.51
2018-01-30T18:14:10.468Z,75.52
2018-01-30T18:16:38.900Z,75.60
2018-01-30T18:19:08.088Z,75.92
2018-01-30T18:21:36.555Z,75.63
2018-01-30T18:24:04.991Z,75.69
2018-01-30T18:26:33.421Z,75.68
2018-01-30T18:29:01.854Z,75.10
2018-01-30T18:31:30.239Z,75.55
2018-01-30T18:33:58.619Z,75.20
2018-01-30T18:36:26.994Z,76.28
2018-01-30T18:38:55.469Z,75.94
2018-01-30T18:41:23.773Z,76.05
2018-01-30T18:43:52.053Z,75.79
2018-01-30T18:46:20.382Z,75.76
2018-01-30T18:48:48.755Z,75.79
2018-01-30T18:51:17.189Z,75.89
2018-01-30T18:53:45.624Z,75.42
2018-01-30T18:56:14.031Z,75.79
2018-01-30T18:58:42.415Z,75.78
2018-01-30T19:01:10.794Z,76.03
2018-01-30T19:03:39.162Z,75.74
2018-01-30T19:06:07.498Z,75.50
2018-01-30T19:08:35.955Z,75.94
2018-01-30T19:11:04.370Z,75.33
2018-01-30T19:13:32.716Z,75.73
2018-01-30T19:16:01.164Z,75.78
2018-01-30T19:18:29.576Z,75.83
2018-01-30T19:20:58.012Z,75.83
2018-01-30T19:23:26.473Z,76.01
2018-01-30T19:25:54.910Z,76.49
2018-01-30T19:28:23.390Z,76.30
2018-01-30T19:30:51.813Z,76.59
2018-01-30T19:33:20.253Z,76.77
2018-01-30T19:35:49.410Z,77.16
2018-01-30T19:38:17.750Z,77.48
2018-01-30T19:40:46.101Z,77.06
2018-01-30T19:43:15.171Z,78.19
2018-01-30T19:45:43.547Z,78.03
2018-01-30T19:48:11.905Z,79.27
2018-01-30T19:50:40.384Z,80.02
2018-01-30T19:53:08.643Z,79.90
2018-01-30T19:55:36.919Z,80.66
2018-01-30T19:58:05.196Z,80.75
2018-01-30T20:00:33.490Z,80.49
2018-01-30T20:03:01.820Z,81.07
2018-01-30T20:05:30.069Z,81.10
2018-01-30T20:07:58.315Z,81.41
2018-01-30T20:10:26.634Z,82.04
2018-01-30T20:12:54.867Z,82.05
2018-01-30T20:15:23.165Z,82.39
2018-01-30T20:17:51.401Z,82.15
2018-01-30T20:20:19.679Z,82.26
2018-01-30T20:22:47.979Z,82.56
2018-01-30T20:25:16.282Z,82.96
2018-01-30T20:27:44.620Z,83.49
2018-01-30T20:30:12.856Z,83.48
2018-01-30T20:32:42.039Z,83.39
2018-01-30T20:35:10.324Z,83.22
2018-01-30T20:37:38.616Z,83.46
2018-01-30T20:40:07.610Z,83.43
2018-01-30T20:42:36.617Z,82.97
2018-01-30T20:45:04.867Z,82.57
2018-01-30T20:47:33.900Z,82.63
2018-01-30T20:50:02.203Z,82.47
2018-01-30T20:52:30.651Z,83.15
2018-01-30T20:54:59.103Z,82.83
2018-01-30T20:57:28.334Z,82.65
2018-01-30T20:59:56.831Z,82.64
2018-01-30T21:02:25.230Z,83.00
2018-01-30T21:04:53.690Z,83.25
2018-01-30T21:07:22.182Z,83.60
2018-01-30T21:09:50.652Z,83.38
2018-01-30T21:12:19.041Z,83.47
2018-01-30T21:14:47.846Z,83.66
2018-01-30T21:17:16.282Z,83.60
2018-01-30T21:19:44.688Z,83.81
2018-01-30T21:22:13.166Z,84.17
2018-01-30T21:24:41.644Z,84.30
2018-01-30T21:27:10.047Z,84.38
2018-01-30T21:29:39.328Z,84.50
2018-01-30T21:32:07.811Z,84.83
2018-01-30T21:34:36.276Z,85.02
2018-01-30T21:37:04.715Z,84.59
2018-01-30T21:39:33.959Z,84.74
2018-01-30T21:42:02.369Z,84.52
2018-01-30T21:44:30.808Z,84.23
2018-01-30T21:46:59.222Z,84.04
2018-01-30T21:49:27.676Z,83.65
2018-01-30T21:51:56.095Z,84.31
2018-01-30T21:54:24.581Z,83.85
2018-01-30T21:56:53.820Z,83.90
2018-01-30T21:59:22.296Z,83.53
2018-01-30T22:01:50.732Z,83.27
2018-01-30T22:04:19.943Z,83.44
2018-01-30T22:06:49.123Z,83.60
2018-01-30T22:09:18.361Z,83.57
2018-01-30T22:11:46.797Z,84.01
2018-01-30T22:14:15.188Z,84.12
2018-01-30T22:16:44.294Z,84.47
2018-01-30T22:19:13.371Z,84.87
2018-01-30T22:21:41.626Z,84.71
2018-01-30T22:24:09.903Z,84.75
2018-01-30T22:26:38.221Z,84.27
2018-01-30T22:29:07.237Z,84.11
2018-01-30T22:31:35.548Z,84.49
2018-01-30T22:34:03.794Z,84.50
2018-01-30T22:36:32.105Z,84.31
2018-01-30T22:39:00.363Z,83.99
2018-01-30T22:41:28.671Z,84.33
2018-01-30T22:43:58.282Z,84.27
2018-01-30T22:46:26.708Z,84.80
